createdAt,value
2022-08-26T00:00:53.752Z,99332.72
2022-08-26T00:03:23.833Z,99319.56
2022-08-26T00:05:59.879Z,99376.56
2022-08-26T00:08:27.963Z,99342.22
2022-08-26T00:10:56.020Z,99363.63
2022-08-26T00:13:28.715Z,99316.66
2022-08-26T00:15:57.398Z,99370.09
2022-08-26T00:18:25.946Z,99368.06
2022-08-26T00:20:55.313Z,99367.59
2022-08-26T00:24:26.605Z,99371.28
2022-08-26T00:26:52.405Z,99374.97
2022-08-26T00:29:21.353Z,99329.53
2022-08-26T00:31:50.708Z,99376.50
2022-08-26T00:34:19.585Z,99340.66
2022-08-26T00:36:49.341Z,99378.34
2022-08-26T00:39:21.147Z,99380.06
2022-08-26T00:41:50.214Z,99378.59
2022-08-26T00:44:18.499Z,99378.03
2022-08-26T00:46:53.990Z,99374.69
2022-08-26T00:49:42.952Z,99349.97
2022-08-26T00:52:17.006Z,99373.00
2022-08-26T00:55:38.933Z,99377.00
2022-08-26T00:58:08.816Z,99383.91
2022-08-26T01:00:36.881Z,99368.00
2022-08-26T01:03:05.500Z,99386.41
2022-08-26T01:05:35.867Z,99383.44
2022-08-26T01:08:04.395Z,99385.59
2022-08-26T01:10:32.582Z,99387.25
2022-08-26T01:13:10.437Z,99370.75
2022-08-26T01:15:49.441Z,99378.44
2022-08-26T01:18:18.996Z,99385.16
2022-08-26T01:21:08.131Z,99385.16
2022-08-26T01:23:42.987Z,99328.78
2022-08-26T01:26:27.389Z,99389.72
2022-08-26T01:28:59.020Z,99379.88
2022-08-26T01:31:31.193Z,99384.94
2022-08-26T01:34:11.153Z,99383.00
2022-08-26T01:36:53.608Z,99264.13
2022-08-26T01:39:22.019Z,99383.50
2022-08-26T01:42:03.024Z,99390.69
2022-08-26T01:44:38.885Z,99389.88
2022-08-26T01:47:09.745Z,99384.81
2022-08-26T01:49:38.479Z,99393.06
2022-08-26T01:52:08.816Z,99389.91
2022-08-26T01:54:39.244Z,99375.44
2022-08-26T01:57:08.521Z,99363.28
2022-08-26T01:59:36.798Z,99296.06
2022-08-26T02:02:04.943Z,99330.25
2022-08-26T02:04:48.176Z,99384.50
2022-08-26T02:07:21.543Z,99380.50
2022-08-26T02:12:31.842Z,99373.06
2022-08-26T02:15:05.830Z,99381.03
2022-08-26T02:17:44.778Z,99380.19
2022-08-26T02:20:18.501Z,99328.81
2022-08-26T02:22:48.035Z,99357.03
2022-08-26T02:25:42.012Z,99342.38
2022-08-26T02:28:12.777Z,99377.91
2022-08-26T02:30:41.782Z,99334.88
2022-08-26T02:33:10.726Z,99381.75
2022-08-26T02:35:40.540Z,99381.25
2022-08-26T02:38:11.235Z,99352.59
2022-08-26T02:40:42.354Z,99371.59
2022-08-26T02:43:12.558Z,99363.72
2022-08-26T02:45:41.859Z,99317.03
2022-08-26T02:48:17.209Z,99324.72
2022-08-26T02:50:48.683Z,99371.25
2022-08-26T02:53:23.205Z,99373.09
2022-08-26T02:55:53.664Z,99378.81
2022-08-26T02:58:21.685Z,99375.97
2022-08-26T03:00:53.480Z,99329.44
2022-08-26T03:03:23.668Z,99370.97
2022-08-26T03:05:55.251Z,99375.84
2022-08-26T03:08:23.569Z,99363.34
2022-08-26T03:10:51.889Z,99369.31
2022-08-26T03:13:19.877Z,99368.16
2022-08-26T03:15:48.087Z,99367.31
2022-08-26T03:18:16.421Z,99363.97
2022-08-26T03:20:44.904Z,99364.13
2022-08-26T03:23:13.029Z,99320.63
2022-08-26T03:25:41.350Z,99341.63
2022-08-26T03:28:09.555Z,99315.91
2022-08-26T03:30:44.824Z,99351.47
2022-08-26T03:33:15.325Z,99313.94
2022-08-26T03:35:47.985Z,99363.47
2022-08-26T03:38:22.544Z,99346.47
2022-08-26T03:40:51.195Z,99349.66
2022-08-26T03:43:21.612Z,99320.00
2022-08-26T03:45:51.277Z,99214.47
2022-08-26T03:48:19.543Z,99345.09
2022-08-26T03:50:47.614Z,99301.53
2022-08-26T03:53:17.269Z,99338.06
2022-08-26T03:55:51.913Z,99328.84
2022-08-26T03:58:21.506Z,99344.50
2022-08-26T04:00:55.724Z,99336.66
2022-08-26T04:03:44.703Z,99333.13
2022-08-26T04:06:14.669Z,99329.47
2022-08-26T04:08:54.963Z,99332.75
2022-08-26T04:11:32.149Z,99336.78
2022-08-26T04:14:09.800Z,99333.22
2022-08-26T04:16:39.016Z,99268.34
2022-08-26T04:19:07.406Z,99330.50
2022-08-26T04:21:36.082Z,99239.06
2022-08-26T04:24:12.202Z,99333.31
2022-08-26T04:26:42.744Z,99292.53
2022-08-26T04:29:24.135Z,99329.50
2022-08-26T04:31:57.892Z,99321.56
2022-08-26T04:34:28.984Z,99322.16
2022-08-26T04:36:58.642Z,99315.91
2022-08-26T04:39:28.137Z,99324.59
2022-08-26T04:41:57.650Z,99312.44
2022-08-26T04:44:29.877Z,99276.69
2022-08-26T04:46:58.831Z,99291.19
2022-08-26T04:49:27.715Z,99326.94
2022-08-26T04:51:56.286Z,99286.53
2022-08-26T04:54:26.244Z,99320.06
2022-08-26T04:56:54.396Z,99321.38
2022-08-26T04:59:23.214Z,99312.81
2022-08-26T05:01:57.478Z,99325.41
2022-08-26T05:04:25.936Z,99321.78
2022-08-26T05:06:59.271Z,99334.78
2022-08-26T05:09:30.941Z,99316.09
2022-08-26T05:11:59.110Z,99314.84
2022-08-26T05:14:27.345Z,99338.34
2022-08-26T05:16:56.389Z,99312.19
2022-08-26T05:19:24.895Z,99325.31
2022-08-26T05:21:56.197Z,99335.84
2022-08-26T05:24:24.686Z,99318.63
2022-08-26T05:26:53.200Z,99326.75
2022-08-26T05:29:21.592Z,99263.44
2022-08-26T05:31:52.903Z,99290.19
2022-08-26T05:34:24.075Z,99305.09
2022-08-26T05:36:58.733Z,99296.19
2022-08-26T05:39:26.976Z,99315.19
2022-08-26T05:41:55.047Z,99336.19
2022-08-26T05:44:23.321Z,99319.56
2022-08-26T05:46:51.950Z,99334.38
2022-08-26T05:49:20.485Z,99337.97
2022-08-26T05:51:50.815Z,99331.47
2022-08-26T05:54:22.041Z,99337.13
2022-08-26T05:56:52.497Z,99331.25
2022-08-26T05:59:21.398Z,99337.47
2022-08-26T06:01:55.251Z,99334.84
2022-08-26T06:04:27.430Z,99343.59
2022-08-26T06:07:00.091Z,99346.13
2022-08-26T06:09:28.456Z,99334.56
2022-08-26T06:11:58.983Z,99333.13
2022-08-26T06:14:27.244Z,99304.88
2022-08-26T06:16:55.545Z,99329.06
2022-08-26T06:19:23.816Z,99338.38
2022-08-26T06:21:54.305Z,99318.34
2022-08-26T06:24:42.010Z,99344.28
2022-08-26T06:27:15.193Z,99338.41
2022-08-26T06:29:43.581Z,99236.19
2022-08-26T06:32:11.781Z,99350.06
2022-08-26T06:34:43.107Z,99350.91
2022-08-26T06:37:11.266Z,99342.09
2022-08-26T06:39:42.231Z,99349.69
2022-08-26T06:42:11.988Z,99315.13
2022-08-26T06:44:44.881Z,99352.72
2022-08-26T06:47:13.457Z,99350.19
2022-08-26T06:49:41.867Z,99325.63
2022-08-26T06:52:12.508Z,99351.31
2022-08-26T06:54:44.332Z,99352.56
2022-08-26T06:57:13.203Z,99325.56
2022-08-26T06:59:42.730Z,99358.03
2022-08-26T07:02:13.522Z,99353.34
2022-08-26T07:04:43.125Z,99347.38
2022-08-26T07:07:16.274Z,99358.78
2022-08-26T07:09:44.420Z,99352.53
2022-08-26T07:12:12.549Z,99342.81
2022-08-26T07:14:41.529Z,99320.06
2022-08-26T07:17:16.547Z,99350.88
2022-08-26T07:19:46.164Z,99322.91
2022-08-26T07:22:15.180Z,99341.56
2022-08-26T07:24:44.834Z,99348.97
2022-08-26T07:27:17.771Z,99344.00
2022-08-26T07:29:46.837Z,99333.00
2022-08-26T07:32:19.473Z,99315.72
2022-08-26T07:34:49.365Z,99332.59
2022-08-26T07:37:18.427Z,99340.81
2022-08-26T07:39:48.654Z,99331.34
2022-08-26T07:42:19.924Z,99303.66
2022-08-26T07:44:48.293Z,99292.53
2022-08-26T07:47:25.062Z,99209.38
2022-08-26T07:49:57.709Z,99325.03
2022-08-26T07:52:29.852Z,99285.84
2022-08-26T07:55:01.039Z,99328.88
2022-08-26T07:57:30.579Z,99321.50
2022-08-26T07:59:59.825Z,99310.03
2022-08-26T08:02:30.020Z,99273.41
2022-08-26T08:04:59.750Z,99310.00
2022-08-26T08:07:44.397Z,99278.75
2022-08-26T08:10:21.436Z,99283.41
2022-08-26T08:12:53.917Z,99279.25
2022-08-26T08:15:26.843Z,99313.69
2022-08-26T08:17:58.849Z,99292.19
2022-08-26T08:20:30.184Z,99286.66
2022-08-26T08:22:59.113Z,99312.84
2022-08-26T08:25:27.833Z,99273.41
2022-08-26T08:27:55.901Z,99300.50
2022-08-26T08:30:25.195Z,99286.78
2022-08-26T08:32:54.192Z,99307.50
2022-08-26T08:35:26.582Z,99278.47
2022-08-26T08:37:55.616Z,99287.06
2022-08-26T08:40:27.850Z,99291.69
2022-08-26T08:43:04.091Z,99271.63
2022-08-26T08:46:04.587Z,99262.72
2022-08-26T08:48:39.177Z,99288.72
2022-08-26T08:51:22.463Z,99299.81
2022-08-26T08:53:55.044Z,99303.03
2022-08-26T08:56:49.959Z,99305.06
2022-08-26T08:59:25.430Z,99297.38
2022-08-26T09:02:46.146Z,99291.38
2022-08-26T09:05:34.302Z,99288.78
2022-08-26T09:08:11.612Z,99278.53
2022-08-26T09:10:58.160Z,99260.06
2022-08-26T09:13:28.225Z,99281.16
2022-08-26T09:16:25.556Z,99286.34
2022-08-26T09:18:59.557Z,99256.84
2022-08-26T09:21:28.204Z,99291.38
2022-08-26T09:23:57.431Z,99255.66
2022-08-26T09:26:39.943Z,99296.16
2022-08-26T09:29:25.995Z,99278.91
2022-08-26T09:32:20.231Z,99286.66
2022-08-26T09:35:08.183Z,99251.91
2022-08-26T09:37:42.123Z,99276.75
2022-08-26T09:40:36.406Z,99268.44
2022-08-26T09:43:09.470Z,99269.47
2022-08-26T09:45:39.777Z,99270.81
2022-08-26T09:48:09.304Z,99233.66
2022-08-26T09:51:00.306Z,99267.41
2022-08-26T09:53:37.695Z,99228.56
2022-08-26T09:56:25.898Z,99265.72
2022-08-26T09:58:57.623Z,99250.75
2022-08-26T10:01:42.168Z,99260.97
2022-08-26T10:04:23.439Z,99249.47
2022-08-26T10:07:05.866Z,99259.19
2022-08-26T10:09:43.194Z,99247.53
2022-08-26T10:12:21.703Z,99249.88
2022-08-26T10:14:59.980Z,99250.72
2022-08-26T10:17:46.579Z,99241.50
2022-08-26T10:20:24.138Z,99245.25
2022-08-26T10:23:23.386Z,99222.50
2022-08-26T10:26:32.783Z,99198.09
2022-08-26T10:29:23.580Z,99230.63
2022-08-26T10:32:03.622Z,99193.78
2022-08-26T10:34:35.199Z,99231.50
2022-08-26T10:37:20.567Z,99224.66
2022-08-26T10:40:02.867Z,99241.75
2022-08-26T10:43:19.250Z,99201.47
2022-08-26T10:45:57.857Z,99189.78
2022-08-26T10:49:09.310Z,99226.16
2022-08-26T10:51:53.214Z,99183.19
2022-08-26T10:55:05.338Z,99216.84
2022-08-26T10:58:05.960Z,99217.41
2022-08-26T11:01:10.445Z,99178.75
2022-08-26T11:03:54.286Z,99220.28
2022-08-26T11:06:30.589Z,99155.88
2022-08-26T11:09:05.894Z,99212.09
2022-08-26T11:11:40.876Z,99209.63
2022-08-26T11:14:18.160Z,99207.91
2022-08-26T11:17:00.238Z,99200.06
2022-08-26T11:19:59.485Z,99213.78
2022-08-26T11:22:41.501Z,99199.06
2022-08-26T11:25:29.960Z,99189.03
2022-08-26T11:28:01.762Z,99202.47
2022-08-26T11:30:41.145Z,99163.34
2022-08-26T11:33:09.639Z,99159.28
2022-08-26T11:35:38.539Z,99203.91
2022-08-26T11:38:19.946Z,99190.06
2022-08-26T11:41:21.139Z,99198.28
2022-08-26T11:43:52.533Z,99183.13
2022-08-26T11:46:28.879Z,99192.91
2022-08-26T11:49:07.694Z,99175.78
2022-08-26T11:51:40.361Z,99147.63
2022-08-26T11:54:18.342Z,99187.88
2022-08-26T11:57:11.798Z,99171.88
2022-08-26T11:59:42.559Z,99179.97
2022-08-26T12:02:17.909Z,99174.50
2022-08-26T12:04:50.913Z,99170.03
2022-08-26T12:07:26.145Z,99164.94
2022-08-26T12:10:02.254Z,99102.16
2022-08-26T12:12:38.931Z,99135.31
2022-08-26T12:15:20.263Z,99167.50
2022-08-26T12:18:03.551Z,99134.69
2022-08-26T12:20:49.098Z,99161.75
2022-08-26T12:23:35.289Z,99092.53
2022-08-26T12:26:31.749Z,99157.22
2022-08-26T12:29:10.819Z,99103.41
2022-08-26T12:31:50.157Z,99113.19
2022-08-26T12:34:19.074Z,99132.53
2022-08-26T12:36:55.307Z,99140.34
2022-08-26T12:39:38.678Z,99125.75
2022-08-26T12:42:39.727Z,99128.72
2022-08-26T12:45:09.226Z,99139.06
2022-08-26T12:47:44.419Z,99131.09
2022-08-26T12:50:27.621Z,99128.06
2022-08-26T12:53:25.411Z,99132.53
2022-08-26T12:55:58.128Z,99114.63
2022-08-26T12:58:38.825Z,99127.63
2022-08-26T13:01:07.281Z,99135.66
2022-08-26T13:03:35.545Z,99133.56
2022-08-26T13:06:30.089Z,99137.00
2022-08-26T13:09:09.304Z,99136.53
2022-08-26T13:11:40.742Z,99131.44
2022-08-26T13:14:23.752Z,99130.16
2022-08-26T13:16:53.492Z,99084.66
2022-08-26T13:19:25.768Z,99105.69
2022-08-26T13:21:57.715Z,99111.97
2022-08-26T13:24:44.268Z,99119.59
2022-08-26T13:27:15.065Z,99119.59
2022-08-26T13:29:43.155Z,99100.91
2022-08-26T13:32:11.340Z,99113.19
2022-08-26T13:34:40.211Z,99117.28
2022-08-26T13:37:08.354Z,99076.59
2022-08-26T13:39:36.940Z,99106.41
2022-08-26T13:42:05.524Z,99108.19
2022-08-26T13:44:33.755Z,99072.19
2022-08-26T13:47:01.846Z,99104.03
2022-08-26T13:49:30.138Z,99109.28
2022-08-26T13:51:58.193Z,99080.78
2022-08-26T13:54:26.286Z,99072.81
2022-08-26T13:56:54.808Z,99072.69
2022-08-26T13:59:22.836Z,99108.22
2022-08-26T14:01:51.121Z,99103.31
2022-08-26T14:04:20.772Z,99100.66
2022-08-26T14:06:55.398Z,99113.44
2022-08-26T14:09:24.153Z,99106.94
2022-08-26T14:11:54.077Z,99073.38
2022-08-26T14:14:23.745Z,99110.50
2022-08-26T14:16:59.599Z,99108.38
2022-08-26T14:19:31.655Z,99122.66
2022-08-26T14:22:02.201Z,99109.03
2022-08-26T14:24:30.493Z,99076.56
2022-08-26T14:26:58.867Z,99060.13
2022-08-26T14:29:27.680Z,99098.72
2022-08-26T14:31:59.829Z,99098.81
2022-08-26T14:34:28.470Z,99101.00
2022-08-26T14:36:56.594Z,99107.22
2022-08-26T14:39:25.490Z,99104.47
2022-08-26T14:41:57.006Z,99057.75
2022-08-26T14:44:32.967Z,99095.03
2022-08-26T14:47:04.371Z,99052.06
2022-08-26T14:49:32.717Z,99056.31
2022-08-26T14:52:00.918Z,99089.88
2022-08-26T14:54:29.873Z,99091.81
2022-08-26T14:57:05.010Z,99052.59
2022-08-26T14:59:41.054Z,99052.31
2022-08-26T15:02:13.668Z,99025.41
2022-08-26T15:04:50.790Z,99091.69
2022-08-26T15:07:20.532Z,99049.53
2022-08-26T15:09:48.839Z,99069.53
2022-08-26T15:12:17.122Z,99045.22
2022-08-26T15:14:45.416Z,99083.53
2022-08-26T15:17:13.637Z,99084.69
2022-08-26T15:19:41.837Z,99038.81
2022-08-26T15:22:10.531Z,99037.31
2022-08-26T15:24:41.583Z,99085.66
2022-08-26T15:27:10.114Z,99076.22
2022-08-26T15:29:42.038Z,99067.06
2022-08-26T15:32:10.292Z,99037.44
2022-08-26T15:34:39.166Z,99075.34
2022-08-26T15:37:07.724Z,99040.22
2022-08-26T15:39:35.987Z,99038.69
2022-08-26T15:42:04.822Z,99071.41
2022-08-26T15:44:34.351Z,99077.13
2022-08-26T15:47:02.654Z,99029.88
2022-08-26T15:49:32.387Z,99074.28
2022-08-26T15:52:00.379Z,99042.88
2022-08-26T15:54:28.535Z,99051.56
2022-08-26T15:56:57.602Z,99065.16
2022-08-26T15:59:26.871Z,99021.00
2022-08-26T16:01:55.544Z,99068.63
2022-08-26T16:04:23.987Z,99067.09
2022-08-26T16:06:53.487Z,99067.91
2022-08-26T16:09:27.392Z,99068.22
2022-08-26T16:11:56.427Z,99066.69
2022-08-26T16:14:25.404Z,99056.81
2022-08-26T16:16:54.048Z,99076.72
2022-08-26T16:19:22.380Z,98986.63
2022-08-26T16:21:51.805Z,99000.03
2022-08-26T16:24:28.454Z,99021.56
2022-08-26T16:27:00.067Z,99045.53
2022-08-26T16:29:28.965Z,99068.34
2022-08-26T16:31:57.112Z,99021.56
2022-08-26T16:34:25.196Z,99060.75
2022-08-26T16:36:53.695Z,99049.38
2022-08-26T16:39:22.850Z,99060.38
2022-08-26T16:41:51.088Z,99053.03
2022-08-26T16:44:19.593Z,98986.09
2022-08-26T16:46:47.828Z,99062.94
2022-08-26T16:49:16.078Z,99060.34
2022-08-26T16:51:44.687Z,99019.19
2022-08-26T16:54:13.196Z,99064.19
2022-08-26T16:56:41.451Z,99032.97
2022-08-26T16:59:11.887Z,99065.78
2022-08-26T17:01:40.823Z,99071.88
2022-08-26T17:04:11.082Z,99065.97
2022-08-26T17:06:39.782Z,99073.19
2022-08-26T17:09:08.423Z,99036.72
2022-08-26T17:11:36.571Z,99063.44
2022-08-26T17:14:06.416Z,99067.09
2022-08-26T17:16:34.731Z,99055.72
2022-08-26T17:19:04.638Z,99021.75
2022-08-26T17:21:36.439Z,99065.84
2022-08-26T17:24:06.874Z,99062.22
2022-08-26T17:26:36.002Z,99058.34
2022-08-26T17:29:07.569Z,99052.00
2022-08-26T17:31:35.934Z,99034.06
2022-08-26T17:34:04.802Z,99028.22
2022-08-26T17:36:32.937Z,99026.41
2022-08-26T17:39:01.762Z,99063.41
2022-08-26T17:41:30.182Z,99074.22
2022-08-26T17:43:58.626Z,99071.38
2022-08-26T17:46:27.156Z,99074.03
2022-08-26T17:48:55.430Z,99074.44
2022-08-26T17:51:24.538Z,99082.38
2022-08-26T17:53:53.616Z,99082.72
2022-08-26T17:56:30.075Z,99066.19
2022-08-26T17:59:02.868Z,99072.41
2022-08-26T18:01:33.442Z,99033.50
2022-08-26T18:04:03.902Z,99060.88
2022-08-26T18:06:32.683Z,99077.97
2022-08-26T18:09:02.125Z,98990.75
2022-08-26T18:11:32.916Z,99051.84
2022-08-26T18:14:01.123Z,99035.31
2022-08-26T18:16:34.412Z,99072.19
2022-08-26T18:19:02.702Z,99076.31
2022-08-26T18:21:31.135Z,99077.53
2022-08-26T18:23:59.855Z,99070.69
2022-08-26T18:26:40.905Z,99088.13
2022-08-26T18:29:09.362Z,99084.88
2022-08-26T18:31:37.683Z,99083.97
2022-08-26T18:34:05.792Z,99043.69
2022-08-26T18:36:37.214Z,99062.84
2022-08-26T18:39:06.331Z,99070.19
2022-08-26T18:41:44.359Z,99063.84
2022-08-26T18:44:14.406Z,99071.53
2022-08-26T18:46:43.243Z,99066.59
2022-08-26T18:49:21.289Z,99064.84
2022-08-26T18:51:51.261Z,99064.84
2022-08-26T18:56:53.783Z,99061.66
2022-08-26T18:59:30.280Z,99051.00
2022-08-26T19:01:59.450Z,99065.53
2022-08-26T19:04:28.039Z,99057.38
2022-08-26T19:06:56.228Z,99042.06
2022-08-26T19:09:27.275Z,99059.72
2022-08-26T19:14:30.166Z,99060.84
2022-08-26T19:16:58.544Z,98999.13
2022-08-26T19:19:27.000Z,98969.63
2022-08-26T19:21:55.698Z,99018.34
2022-08-26T19:24:27.290Z,99060.50
2022-08-26T19:27:01.247Z,99057.25
2022-08-26T19:29:35.444Z,99056.53
2022-08-26T19:32:04.713Z,99070.31
2022-08-26T19:34:32.859Z,99055.44
2022-08-26T19:37:01.072Z,99046.44
2022-08-26T19:39:29.656Z,99049.75
2022-08-26T19:42:00.586Z,99066.38
2022-08-26T19:44:48.369Z,98976.78
2022-08-26T19:47:16.792Z,99075.31
2022-08-26T19:49:45.848Z,99055.09
2022-08-26T19:52:15.125Z,99074.59
2022-08-26T19:54:46.057Z,99020.13
2022-08-26T19:57:14.428Z,99069.34
2022-08-26T19:59:43.407Z,99060.13
2022-08-26T20:02:12.262Z,98972.28
2022-08-26T20:04:46.602Z,99069.88
2022-08-26T20:07:18.587Z,99080.56
2022-08-26T20:09:49.430Z,99077.91
2022-08-26T20:12:18.833Z,99044.50
2022-08-26T20:14:47.422Z,99077.50
2022-08-26T20:17:17.366Z,99034.44
2022-08-26T20:20:04.209Z,99083.53
2022-08-26T20:22:33.981Z,99063.66
2022-08-26T20:25:02.295Z,99086.22
2022-08-26T20:27:37.718Z,99033.97
2022-08-26T20:30:09.354Z,99071.78
2022-08-26T20:32:39.957Z,99067.84
2022-08-26T20:35:13.489Z,99069.75
2022-08-26T20:37:42.494Z,99053.88
2022-08-26T20:40:13.893Z,99073.19
2022-08-26T20:42:42.710Z,99029.13
2022-08-26T20:45:11.400Z,99072.22
2022-08-26T20:47:40.077Z,98990.44
2022-08-26T20:50:09.086Z,99028.78
2022-08-26T20:52:37.222Z,99080.38
2022-08-26T20:55:06.034Z,99074.59
2022-08-26T20:57:34.163Z,99064.66
2022-08-26T21:00:02.584Z,99080.19
2022-08-26T21:02:30.968Z,99070.06
2022-08-26T21:05:00.315Z,99073.19
2022-08-26T21:07:30.412Z,99082.56
2022-08-26T21:09:58.562Z,99070.28
2022-08-26T21:12:27.729Z,99074.22
2022-08-26T21:14:55.992Z,99078.84
2022-08-26T21:17:24.075Z,99081.34
2022-08-26T21:19:52.272Z,99070.59
2022-08-26T21:22:21.264Z,99071.44
2022-08-26T21:24:49.476Z,99068.13
2022-08-26T21:27:21.321Z,99084.97
2022-08-26T21:29:54.698Z,99080.63
2022-08-26T21:32:23.145Z,99073.19
2022-08-26T21:34:56.281Z,99072.78
2022-08-26T21:37:25.844Z,99074.03
2022-08-26T21:39:56.348Z,99067.84
2022-08-26T21:42:26.896Z,99072.41
2022-08-26T21:44:56.252Z,99073.63
2022-08-26T21:47:25.117Z,99029.91
2022-08-26T21:49:56.728Z,99079.84
2022-08-26T21:52:24.974Z,99073.63
2022-08-26T21:54:59.052Z,99024.53
2022-08-26T21:57:29.261Z,99011.47
2022-08-26T21:59:57.756Z,99044.63
2022-08-26T22:02:26.005Z,99040.69
2022-08-26T22:04:54.225Z,99055.81
2022-08-26T22:07:22.458Z,99066.59
2022-08-26T22:09:50.823Z,99067.00
2022-08-26T22:12:19.255Z,99073.44
2022-08-26T22:14:48.050Z,99019.56
2022-08-26T22:17:17.166Z,99041.09
2022-08-26T22:19:46.365Z,99027.41
2022-08-26T22:22:15.460Z,99024.06
2022-08-26T22:24:44.002Z,99073.81
2022-08-26T22:27:13.366Z,99076.56
2022-08-26T22:29:41.702Z,99029.47
2022-08-26T22:32:10.226Z,99069.50
2022-08-26T22:34:38.781Z,98998.16
2022-08-26T22:37:07.009Z,99085.00
2022-08-26T22:39:35.285Z,99078.16
2022-08-26T22:42:05.569Z,99075.25
2022-08-26T22:44:36.660Z,99036.66
2022-08-26T22:47:04.852Z,99071.03
2022-08-26T22:49:33.067Z,99019.81
2022-08-26T22:52:01.272Z,99015.63
2022-08-26T22:54:29.356Z,99064.38
2022-08-26T22:56:57.615Z,99025.81
2022-08-26T22:59:25.856Z,99070.66
2022-08-26T23:01:53.944Z,99066.34
2022-08-26T23:04:22.362Z,99004.59
2022-08-26T23:06:51.829Z,99013.50
2022-08-26T23:09:20.381Z,99050.59
2022-08-26T23:11:50.584Z,99045.41
2022-08-26T23:14:19.577Z,99026.22
2022-08-26T23:16:48.067Z,99053.63
2022-08-26T23:19:19.650Z,99047.19
2022-08-26T23:21:48.433Z,99045.47
2022-08-26T23:24:17.652Z,99013.06
2022-08-26T23:26:46.922Z,99043.69
2022-08-26T23:29:17.328Z,99040.25
2022-08-26T23:31:45.751Z,98988.59
2022-08-26T23:34:32.830Z,99040.38
2022-08-26T23:37:01.412Z,99035.09
2022-08-26T23:39:32.804Z,99045.38
2022-08-26T23:42:01.891Z,99032.31
2022-08-26T23:44:31.156Z,99035.88
2022-08-26T23:47:00.149Z,98996.06
2022-08-26T23:49:29.096Z,98997.22
2022-08-26T23:52:16.121Z,99033.31
2022-08-26T23:54:44.882Z,99021.53
2022-08-26T23:57:13.120Z,99005.19
2022-08-26T23:59:41.777Z,98957.53
